createdAt,value
2023-01-14T00:02:28.709Z,2.93
2023-01-14T00:05:42.145Z,2.53
2023-01-14T00:08:56.393Z,2.40
2023-01-14T00:12:10.837Z,2.55
2023-01-14T00:15:23.037Z,1.90
2023-01-14T00:18:37.666Z,2.10
2023-01-14T00:21:51.340Z,2.10
2023-01-14T00:25:03.176Z,2.25
2023-01-14T00:28:15.159Z,2.58
2023-01-14T00:31:29.784Z,2.45
2023-01-14T00:34:42.581Z,2.10
2023-01-14T00:37:56.072Z,2.45
2023-01-14T00:41:15.731Z,2.20
2023-01-14T00:44:28.352Z,2.53
2023-01-14T00:47:40.416Z,2.40
2023-01-14T00:50:52.466Z,2.35
2023-01-14T00:54:05.380Z,2.30
2023-01-14T00:57:17.703Z,2.40
2023-01-14T01:00:30.608Z,2.30
2023-01-14T01:03:47.349Z,2.50
2023-01-14T01:07:00.151Z,2.50
2023-01-14T01:10:15.155Z,2.10
2023-01-14T01:13:28.203Z,2.10
2023-01-14T01:16:40.150Z,2.20
2023-01-14T01:19:54.209Z,2.08
2023-01-14T01:23:06.633Z,2.23
2023-01-14T01:26:22.539Z,2.03
2023-01-14T01:29:34.811Z,2.13
2023-01-14T01:32:46.813Z,1.95
2023-01-14T01:36:06.412Z,1.83
2023-01-14T01:39:18.291Z,2.10
2023-01-14T01:42:35.015Z,2.10
2023-01-14T01:45:53.082Z,2.38
2023-01-14T01:52:24.346Z,1.98
2023-01-14T01:55:39.257Z,2.33
2023-01-14T01:58:51.819Z,2.20
2023-01-14T02:02:05.162Z,1.93
2023-01-14T02:05:18.142Z,1.95
2023-01-14T02:08:30.380Z,1.80
2023-01-14T02:12:13.148Z,1.73
2023-01-14T02:15:39.854Z,1.95
2023-01-14T02:19:04.961Z,1.85
2023-01-14T02:22:29.663Z,1.43
2023-01-14T02:26:21.553Z,1.60
2023-01-14T02:29:59.815Z,1.75
2023-01-14T02:33:38.442Z,1.70
2023-01-14T02:36:57.606Z,1.23
2023-01-14T02:40:16.528Z,1.58
2023-01-14T02:43:50.686Z,1.45
2023-01-14T02:47:08.398Z,1.50
2023-01-14T02:50:22.635Z,1.30
2023-01-14T02:53:34.993Z,1.40
2023-01-14T02:56:48.219Z,1.83
2023-01-14T03:00:05.560Z,1.60
2023-01-14T03:03:38.603Z,1.50
2023-01-14T03:07:00.212Z,1.55
2023-01-14T03:13:19.846Z,1.30
2023-01-14T03:16:36.771Z,1.40
2023-01-14T03:19:56.448Z,1.60
2023-01-14T03:23:18.177Z,1.60
2023-01-14T03:26:33.368Z,1.83
2023-01-14T03:29:50.719Z,1.80
2023-01-14T03:33:08.301Z,1.83
2023-01-14T03:36:22.248Z,1.50
2023-01-14T03:39:36.096Z,1.78
2023-01-14T03:42:52.351Z,1.83
2023-01-14T03:46:05.607Z,1.75
2023-01-14T03:49:17.961Z,1.40
2023-01-14T03:52:51.127Z,1.75
2023-01-14T03:56:10.793Z,1.70
2023-01-14T03:59:28.490Z,1.68
2023-01-14T04:02:42.642Z,1.68
2023-01-14T04:05:55.115Z,1.70
2023-01-14T04:09:07.378Z,1.68
2023-01-14T04:12:19.463Z,1.60
2023-01-14T04:15:31.590Z,1.53
2023-01-14T04:18:43.647Z,1.90
2023-01-14T04:21:55.843Z,1.48
2023-01-14T04:25:08.780Z,1.73
2023-01-14T04:28:20.773Z,1.63
2023-01-14T04:31:33.077Z,1.70
2023-01-14T04:34:45.184Z,1.78
2023-01-14T04:37:57.185Z,1.63
2023-01-14T04:41:11.868Z,1.90
2023-01-14T04:44:24.012Z,1.80
2023-01-14T04:47:39.437Z,1.95
2023-01-14T04:50:51.681Z,1.40
2023-01-14T04:54:04.045Z,2.08
2023-01-14T04:57:16.852Z,1.93
2023-01-14T05:00:30.328Z,1.70
2023-01-14T05:03:42.567Z,2.00
2023-01-14T05:06:55.288Z,2.00
2023-01-14T05:10:07.547Z,1.83
2023-01-14T05:13:19.558Z,1.88
2023-01-14T05:16:32.167Z,1.95
2023-01-14T05:19:44.278Z,1.65
2023-01-14T05:22:56.586Z,1.70
2023-01-14T05:26:09.004Z,1.80
2023-01-14T05:29:21.228Z,1.80
2023-01-14T05:32:33.329Z,2.15
2023-01-14T05:35:45.920Z,1.80
2023-01-14T05:38:58.137Z,1.68
2023-01-14T05:42:24.872Z,2.00
2023-01-14T05:45:45.489Z,1.95
2023-01-14T05:48:57.674Z,1.95
2023-01-14T05:52:10.941Z,2.15
2023-01-14T05:55:23.332Z,1.80
2023-01-14T05:58:35.838Z,2.15
2023-01-14T06:02:02.762Z,2.10
2023-01-14T06:05:32.928Z,2.00
2023-01-14T06:08:45.143Z,2.28
2023-01-14T06:11:59.377Z,2.60
2023-01-14T06:15:13.836Z,2.35
2023-01-14T06:18:28.986Z,2.40
2023-01-14T06:21:41.767Z,2.48
2023-01-14T06:24:54.037Z,3.15
2023-01-14T06:28:06.971Z,2.70
2023-01-14T06:31:21.690Z,3.20
2023-01-14T06:34:35.109Z,3.00
2023-01-14T06:37:49.521Z,2.93
2023-01-14T06:41:04.848Z,2.80
2023-01-14T06:44:18.206Z,3.28
2023-01-14T06:47:30.145Z,3.30
2023-01-14T06:50:42.347Z,3.40
2023-01-14T06:53:55.134Z,3.70
2023-01-14T06:57:07.187Z,3.35
2023-01-14T07:00:22.712Z,3.88
2023-01-14T07:03:35.200Z,4.10
2023-01-14T07:06:47.576Z,3.70
2023-01-14T07:09:59.734Z,4.13
2023-01-14T07:13:12.089Z,5.30
2023-01-14T07:16:24.127Z,4.18
2023-01-14T07:19:36.399Z,6.90
2023-01-14T07:22:48.501Z,4.70
2023-01-14T07:26:03.302Z,4.45
2023-01-14T07:29:15.796Z,4.48
2023-01-14T07:32:27.897Z,4.03
2023-01-14T07:35:39.899Z,3.88
2023-01-14T07:38:52.057Z,3.70
2023-01-14T07:42:04.003Z,4.10
2023-01-14T07:45:17.740Z,4.80
2023-01-14T07:48:29.855Z,5.05
2023-01-14T07:51:41.815Z,4.55
2023-01-14T07:54:54.063Z,4.45
2023-01-14T07:58:07.211Z,4.00
2023-01-14T08:01:19.643Z,4.75
2023-01-14T08:04:32.102Z,4.63
2023-01-14T08:07:44.727Z,5.58
2023-01-14T08:10:56.833Z,4.63
2023-01-14T08:14:08.927Z,5.43
2023-01-14T08:17:21.086Z,4.68
2023-01-14T08:20:33.482Z,5.20
2023-01-14T08:23:45.754Z,4.40
2023-01-14T08:26:57.981Z,4.78
2023-01-14T08:30:12.298Z,4.78
2023-01-14T08:33:24.417Z,4.95
2023-01-14T08:36:36.441Z,4.50
2023-01-14T08:39:48.750Z,4.40
2023-01-14T08:43:00.976Z,4.68
2023-01-14T08:46:15.099Z,4.40
2023-01-14T08:49:27.405Z,4.55
2023-01-14T08:52:39.814Z,4.40
2023-01-14T08:55:51.921Z,4.63
2023-01-14T08:59:04.041Z,4.40
2023-01-14T09:02:21.185Z,4.55
2023-01-14T09:05:36.078Z,4.40
2023-01-14T09:09:03.347Z,4.98
2023-01-14T09:12:33.327Z,4.95
2023-01-14T09:16:01.366Z,4.48
2023-01-14T09:19:13.961Z,4.60
2023-01-14T09:22:29.545Z,4.30
2023-01-14T09:25:42.397Z,4.80
2023-01-14T09:28:54.536Z,5.30
2023-01-14T09:32:06.968Z,4.63
2023-01-14T09:35:19.689Z,6.70
2023-01-14T09:38:31.702Z,4.30
2023-01-14T09:41:49.314Z,4.23
2023-01-14T09:45:07.132Z,4.33
2023-01-14T09:48:25.493Z,4.65
2023-01-14T09:52:08.468Z,4.40
2023-01-14T09:55:25.853Z,4.30
2023-01-14T09:58:42.735Z,5.10
2023-01-14T10:02:00.446Z,4.40
2023-01-14T10:05:24.545Z,4.00
2023-01-14T10:08:46.946Z,4.23
2023-01-14T10:21:03.649Z,4.15
2023-01-14T10:24:20.112Z,4.25
2023-01-14T10:27:36.065Z,4.25
2023-01-14T10:30:51.511Z,4.63
2023-01-14T10:34:05.299Z,4.30
2023-01-14T10:37:19.263Z,4.23
2023-01-14T10:40:33.511Z,4.63
2023-01-14T10:43:51.753Z,4.63
2023-01-14T10:47:09.593Z,4.33
2023-01-14T10:50:30.435Z,4.48
2023-01-14T10:53:43.646Z,4.73
2023-01-14T11:00:00.876Z,4.90
2023-01-14T11:03:15.647Z,5.80
2023-01-14T11:06:29.909Z,5.00
2023-01-14T11:09:43.238Z,4.70
2023-01-14T11:12:57.385Z,4.70
2023-01-14T11:16:11.154Z,4.70
2023-01-14T11:19:29.289Z,4.35
2023-01-14T11:22:41.758Z,4.60
2023-01-14T11:25:57.474Z,4.80
2023-01-14T11:29:20.223Z,4.13
2023-01-14T11:32:37.339Z,3.75
2023-01-14T11:39:02.895Z,3.45
2023-01-14T11:42:39.187Z,3.00
2023-01-14T11:45:51.351Z,3.05
2023-01-14T11:49:23.775Z,2.58
2023-01-14T11:52:35.995Z,3.18
2023-01-14T11:55:50.436Z,3.53
2023-01-14T11:59:05.483Z,3.18
2023-01-14T12:02:25.941Z,3.20
2023-01-14T12:05:38.497Z,3.50
2023-01-14T12:08:57.671Z,3.20
2023-01-14T12:12:16.115Z,3.20
2023-01-14T12:15:51.491Z,3.30
2023-01-14T12:19:13.193Z,3.70
2023-01-14T12:22:32.984Z,2.90
2023-01-14T12:25:48.678Z,3.60
2023-01-14T12:29:05.996Z,3.95
2023-01-14T12:32:24.368Z,3.98
2023-01-14T12:35:42.599Z,3.63
2023-01-14T12:39:20.884Z,3.90
2023-01-14T12:45:52.122Z,4.25
2023-01-14T12:49:05.874Z,3.63
2023-01-14T12:52:22.247Z,3.93
2023-01-14T12:55:38.815Z,4.18
2023-01-14T12:58:59.927Z,4.50
2023-01-14T13:02:22.102Z,4.80
2023-01-14T13:05:42.964Z,4.70
2023-01-14T13:09:02.150Z,5.38
2023-01-14T13:12:24.393Z,6.83
2023-01-14T13:15:42.248Z,5.48
2023-01-14T13:42:30.403Z,4.48
2023-01-14T13:48:48.029Z,3.90
2023-01-14T13:52:09.129Z,4.13
2023-01-14T13:55:29.377Z,4.08
2023-01-14T13:58:50.186Z,4.40
2023-01-14T14:02:05.413Z,3.80
2023-01-14T14:05:30.526Z,3.98
2023-01-14T14:08:44.092Z,3.68
2023-01-14T14:12:34.410Z,3.63
2023-01-14T14:15:54.720Z,3.83
2023-01-14T14:25:50.272Z,6.10
2023-01-14T14:32:10.793Z,5.43
2023-01-14T14:35:26.118Z,5.18
2023-01-14T14:38:38.944Z,6.10
2023-01-14T14:41:54.435Z,5.60
2023-01-14T14:45:08.021Z,12.38
2023-01-14T14:48:29.903Z,5.78
2023-01-14T14:51:50.528Z,4.98
2023-01-14T14:55:17.007Z,5.48
2023-01-14T14:58:31.355Z,6.25
2023-01-14T15:01:45.576Z,6.63
2023-01-14T15:05:01.849Z,5.98
2023-01-14T15:08:18.998Z,6.00
2023-01-14T15:11:36.757Z,6.30
2023-01-14T15:14:48.934Z,5.85
2023-01-14T15:18:08.972Z,7.28
2023-01-14T15:21:26.097Z,6.70
2023-01-14T15:24:40.507Z,6.83
2023-01-14T15:27:54.466Z,6.70
2023-01-14T15:31:08.946Z,16.55
2023-01-14T15:34:32.550Z,8.50
2023-01-14T15:37:46.746Z,8.10
2023-01-14T15:40:59.353Z,8.55
2023-01-14T15:44:18.618Z,9.65
2023-01-14T15:47:31.648Z,10.58
2023-01-14T15:50:48.089Z,15.25
2023-01-14T15:54:15.632Z,15.35
2023-01-14T15:57:32.329Z,15.20
2023-01-14T16:00:51.700Z,12.33
2023-01-14T16:04:05.763Z,11.30
2023-01-14T16:07:23.076Z,11.90
2023-01-14T16:10:35.699Z,11.68
2023-01-14T16:13:48.009Z,12.30
2023-01-14T16:17:00.261Z,12.95
2023-01-14T16:20:19.622Z,12.68
2023-01-14T16:23:31.865Z,13.70
2023-01-14T16:26:44.560Z,13.35
2023-01-14T16:29:57.665Z,13.95
2023-01-14T16:33:10.150Z,13.68
2023-01-14T16:36:22.907Z,14.28
2023-01-14T16:39:35.400Z,15.23
2023-01-14T16:42:47.959Z,15.03
2023-01-14T16:46:01.783Z,14.28
2023-01-14T16:49:14.212Z,14.18
2023-01-14T16:52:26.383Z,13.00
2023-01-14T16:55:39.490Z,14.80
2023-01-14T16:58:52.751Z,13.78
2023-01-14T17:02:04.911Z,12.45
2023-01-14T17:05:18.202Z,12.53
2023-01-14T17:08:30.252Z,12.73
2023-01-14T17:11:56.825Z,11.60
2023-01-14T17:15:09.794Z,13.13
2023-01-14T17:18:21.907Z,11.83
2023-01-14T17:21:34.260Z,12.20
2023-01-14T17:24:46.821Z,12.23
2023-01-14T17:28:00.744Z,12.25
2023-01-14T17:34:13.255Z,11.50
2023-01-14T17:37:25.721Z,11.80
2023-01-14T17:40:39.494Z,12.00
2023-01-14T17:43:52.851Z,11.83
2023-01-14T17:47:05.732Z,11.48
2023-01-14T17:50:18.992Z,11.60
2023-01-14T17:53:31.369Z,11.28
2023-01-14T17:56:43.731Z,11.63
2023-01-14T17:59:57.505Z,12.83
2023-01-14T18:03:09.660Z,11.90
2023-01-14T18:06:21.883Z,13.33
2023-01-14T18:09:34.069Z,14.10
2023-01-14T18:12:46.204Z,16.05
2023-01-14T18:15:58.406Z,15.88
2023-01-14T18:19:11.098Z,14.68
2023-01-14T18:22:23.525Z,14.83
2023-01-14T18:25:35.641Z,13.80
2023-01-14T18:28:50.625Z,12.13
2023-01-14T18:32:02.745Z,15.53
2023-01-14T18:35:15.720Z,12.08
2023-01-14T18:38:28.017Z,11.25
2023-01-14T18:41:40.476Z,10.70
2023-01-14T18:44:52.437Z,9.50
2023-01-14T18:48:04.605Z,9.80
2023-01-14T18:51:17.734Z,8.78
2023-01-14T18:54:31.362Z,7.33
2023-01-14T18:57:44.344Z,7.13
2023-01-14T19:00:57.463Z,7.33
2023-01-14T19:04:10.816Z,7.35
2023-01-14T19:07:23.151Z,6.55
2023-01-14T19:10:35.460Z,7.18
2023-01-14T19:13:47.511Z,7.65
2023-01-14T19:17:05.438Z,7.05
2023-01-14T19:20:19.610Z,7.10
2023-01-14T19:23:31.710Z,7.30
2023-01-14T19:26:44.045Z,7.78
2023-01-14T19:29:56.191Z,11.03
2023-01-14T19:33:08.237Z,7.13
2023-01-14T19:36:24.027Z,7.48
2023-01-14T19:39:37.937Z,8.23
2023-01-14T19:42:52.833Z,7.93
2023-01-14T19:46:09.154Z,8.20
2023-01-14T19:49:23.364Z,6.78
2023-01-14T19:52:35.707Z,7.25
2023-01-14T19:56:08.629Z,7.90
2023-01-14T19:59:13.710Z,7.93
2023-01-14T20:02:28.430Z,7.50
2023-01-14T20:05:41.936Z,7.55
2023-01-14T20:08:55.071Z,7.08
2023-01-14T20:12:09.930Z,8.13
2023-01-14T20:15:22.095Z,8.15
2023-01-14T20:18:35.932Z,8.03
2023-01-14T20:21:48.603Z,8.43
2023-01-14T20:25:01.518Z,7.45
2023-01-14T20:28:14.323Z,7.05
2023-01-14T20:31:28.925Z,9.23
2023-01-14T20:34:41.418Z,5.95
2023-01-14T20:37:53.938Z,6.10
2023-01-14T20:41:09.274Z,5.48
2023-01-14T20:44:32.073Z,5.63
2023-01-14T20:47:56.562Z,5.58
2023-01-14T20:51:13.623Z,8.35
2023-01-14T20:54:25.585Z,5.73
2023-01-14T20:57:38.102Z,4.85
2023-01-14T21:00:50.539Z,4.75
2023-01-14T21:07:02.984Z,4.60
2023-01-14T21:20:01.739Z,3.50
2023-01-14T21:26:28.204Z,3.65
2023-01-14T21:29:40.692Z,4.23
2023-01-14T21:32:53.430Z,5.15
2023-01-14T21:36:06.425Z,4.10
2023-01-14T21:45:26.066Z,3.85
2023-01-14T21:48:34.266Z,4.25
2023-01-14T22:00:47.203Z,4.50
2023-01-14T22:04:01.577Z,4.25
2023-01-14T22:44:44.269Z,4.58
2023-01-14T22:47:58.824Z,4.38
2023-01-14T22:51:12.791Z,4.70
2023-01-14T22:54:24.986Z,4.50
2023-01-14T22:57:37.106Z,5.63
2023-01-14T23:00:50.683Z,4.53
2023-01-14T23:04:03.780Z,4.08
2023-01-14T23:07:16.379Z,4.90
2023-01-14T23:10:32.217Z,4.55
2023-01-14T23:13:44.491Z,4.53
2023-01-14T23:17:11.732Z,3.85
2023-01-14T23:20:38.689Z,4.08
2023-01-14T23:23:56.515Z,4.30
2023-01-14T23:27:08.922Z,5.35
2023-01-14T23:30:21.965Z,4.90
2023-01-14T23:33:33.877Z,4.90
2023-01-14T23:36:46.274Z,4.68
2023-01-14T23:39:58.998Z,4.38
2023-01-14T23:43:11.704Z,4.25
2023-01-14T23:46:24.328Z,4.70
2023-01-14T23:49:37.355Z,4.10
2023-01-14T23:52:49.453Z,3.70
2023-01-14T23:56:03.646Z,3.40
2023-01-14T23:59:16.655Z,4.40
